<h2>Celebrating 3 years‏</h2><p>Thanks all</p>

Oman Air Virtual

About Us. About Our VA

Book Virtual Flights

Fly from Muscat to the World Virtually!

OMV News & Updates

OMV Newest Pilot

OMV Statistics

Total Fights Loged Today: 2
Total Visits Past Hour: 2
Total Pilots Registered: 154
Total Flights Flown: 3583
Total Aircrafts Active: 58
Total Flight Schedules: 274
Total Miles Flown: 3712514
Total Hours Clocked: 9567.37
Total Passengers: 1,688,571
Total CodeShare flight added: 32 Flights
VA average landing rate: -22
Virtual Airline Rank:

Flight Tracking

LIVE Flight Tracking and Route

Destinations

View Our Wide Virtual Network

VA QUICK FACT:


Pilots

Aircraft in Fleet

Completed Flights

Schedules


Opreated by # No. Origin Destination Fleet / PIC
OMA907 OOMS OOSA 737-81M

PIC: Abdulaziz Alquodi
OMA623 OOMS OMDB 737-8SH

PIC: Abdulaziz Albarwani
OMA609 OOMS OMDB 737-8SH

PIC: Khalid Ali
Opreated by # No. Origin Destination Landing Rate Status
OMA5102

View Report
VRMM VCBI -183 ft/min Normal landing Approval Pending
OMA5101

View Report
VCBI VRMM -194 ft/min Normal landing Approval Pending
OMA677

View Report
OOMS OEMA -633 ft/min Rejected (Crash) Accepted
OMA643

View Report
OOMS OKBK -263 ft/min Normal landing Accepted
OMA644

View Report
OKBK OOMS -115 ft/min Normal landing Accepted

Source: IVAO Metar and TAF Information.

Muscat International Airport (ICAO: OOMS)
METAR: OOMS 220950Z 05008KT 8000 FEW025 32/28 Q0998 NOSIG
TAF: OOMS 220500Z 2206/2312 05012KT 8000 NSC PROB30 TEMPO 2206/2218 BKN050 BECMG 2217/2219 VRB03KT PROB30 TEMPO 2220/2308 BKN050 BECMG 2306/2308 05014KT

Salalah International Airport (ICAO: OOSA)
METAR: OOSA 220850Z 19010KT 160V220 9999 FEW014 BKN025 29/25 Q0999 NOSIG
TAF: OOSA 220540Z 2206/2312 VRB03KT 6000 FEW009 BKN014 OVC020 BECMG 2207/2209 18010KT BECMG 2215/2217 VRB03KT 4000 -DZ BR SCT010 BKN015 OVC018 BECMG 2304/2306 15010KT 7000 FEW008 BKN012 OVC020

Oman Air Virtual is no way affiliated to the real Oman Air. How ever the brand logo, colors belongs to Oman Air and we use only for the Simulation Purpose for the virtual aviation enthousiast around the globe.

If you are looking for Oman Air website, we kindly request you to visit www.omanair.com

ATC Online IVAO
Pilots Online IVAO
OMV birthday
Member Online